Logo AVAMET
Benvolgut visitant, si us plau, ingressa Recuperar contrasenya

Dénia Montgó

Dades diàries. Acumulats / Últims 30 dies disponibles

Data Temperatura (°C) Humitat rel. (%) Pressió rel. (hPa) Vent (km/h) Precipitació
Mínima Mitjana Màxima Amplitud
tèrmica
Mínima Mitjana Màxima Mínima Mitjana Màxima Predom. Mitjana Ràfega
màxima
Total
(mm)
Índex-n
Mínima Mitjana Màxima Mínima Mitjana Màxima n
0 a 1
P0 max
mm 5'
Dades mensuals acumulades fins l'últim dia disponible
11/2019 10,4 15,7 22,1 18,1 16,0 20,9 26,3 15,9 29 52 68 1.002 1.011 1.020   15,4 61,0 0,0
Dades anuals acumulades fins l'últim dia disponible
2019 5,9 16,6 26,8 19,6 9,9 22,9 38,7 32,8 10 66 99 993 1.016 1.034   9,8 72,2 720,2
Últims 30 dies disponibles
11-11-2019 10,4     13,5     16,5 6,1 42 51 60 1.011 1.012 1.014 OSO 10,4 44,4 0,0
10-11-2019 11,3     13,8     16,0 4,7 42 55 67 1.010 1.012 1.013 O 15,9 55,5 0,0
09-11-2019 12,9     15,3     18,2 5,3 37 51 65 1.013 1.017 1.019 OSO 16,2 55,5 0,0
08-11-2019 10,9     13,9     16,2 5,3 37 49 61 1.009 1.012 1.016 O 18,6 59,2 0,0
07-11-2019 14,9     17,4     20,7 5,8 29 47 64 1.007 1.010 1.013 SO 12,8 38,9 0,0
06-11-2019 14,7     16,8     20,6 5,9 38 47 56 1.012 1.012 1.014 OSO 14,8 48,1 0,0
05-11-2019 15,9     18,2     21,2 5,3 42 52 61 1.006 1.009 1.012 OSO 19,5 61,0 0,0
04-11-2019 19,3     21,5     25,1 5,8 45 54 63 1.006 1.009 1.012 SO 14,6 51,8 0,0
03-11-2019 19,4     21,5     23,8 4,4 46 54 62 1.002 1.005 1.011 OSO 18,3 59,2 0,0
02-11-2019 22,1     23,4     25,7 3,6 45 53 61 1.005 1.009 1.013 SO 16,3 50,0 0,0
01-11-2019 21,1     23,6     26,3 5,2 53 61 68 1.013 1.017 1.020 SO 11,7 50,0 0,0
31-10-2019 20,7     23,0     25,1 4,4 52 64 75 1.019 1.020 1.021 SO 10,5 38,9 0,0
30-10-2019 17,9     21,0     24,4 6,5 51 72 92 1.019 1.020 1.021 SSE 5,9 27,8 0,0
29-10-2019 17,1     20,2     23,9 6,8 51 72 93 1.015 1.016 1.019 ESE 4,7 27,8 0,0
28-10-2019 16,4     18,7     21,4 5,0 64 79 94 1.016 1.017 1.020 SE 5,3 33,3 0,0
27-10-2019 16,6     18,2     20,1 3,5 79 86 93 1.020 1.021 1.022 SE 7,2 35,1 0,0
26-10-2019 17,0     18,6     20,9 3,9 63 78 92 1.020 1.021 1.022 ESE 4,6 22,2 0,0
25-10-2019 16,9     19,5     22,7 5,8 51 58 65 1.020 1.021 1.023 S 8,4 31,4 0,0
24-10-2019 13,8     16,9     20,7 6,9 49 58 67 1.011 1.015 1.021 SO 11,4 31,4 0,0
23-10-2019 12,9     15,4     18,8 5,9 53 68 82 1.006 1.008 1.011 SSO 8,9 48,1 5,1
22-10-2019 13,2     15,1     16,9 3,7 67 83 99 1.005 945 1.017 ONO 10,9 44,4 71,6 0,55 5,00
21-10-2019 13,4     15,5     17,1 3,7 48 72 96 1.015 1.017 1.018 SSO 4,9 24,1 7,4 0,32 0,50
20-10-2019 17,0     21,0     23,7 6,7 44 64 84 1.005 1.009 1.015 SSO 10,3 51,8 0,0
19-10-2019 21,0     23,1     25,3 4,3 33 59 85 1.006 1.010 1.013 ESE 9,8 50,0 0,0
18-10-2019 21,1     23,8     26,5 5,4 38 48 58 1.013 1.015 1.017 SSE 10,6 40,7 0,0
17-10-2019 20,2     23,1     25,7 5,5 33 44 55 1.016 1.016 1.017 S 9,9 31,4 0,0
16-10-2019 17,7     20,8     23,7 6,0 33 46 59 1.016 1.018 1.020 S 11,8 38,9 0,0
15-10-2019 16,1     19,2     23,1 7,0 30 44 57 1.014 1.018 1.020 OSO 14,7 53,6 0,0
14-10-2019 20,4     21,7     24,0 3,6 51 74 96 1.011 1.014 1.017 SE 6,3 44,4 1,3
13-10-2019 20,2     22,5     24,9 4,7 79 85 90 1.016 1.016 1.018 NNO 3,9 24,1 0,0
Últims 13 mesos disponibles
10/2019 12,9 18,6 22,6 21,0 16,9 23,8 31,6 18,7 44 69 89 945 1.014 1.021 SE 8,5 53,6 85,4
09/2019 14,1 21,2 24,5 24,1 22,3 27,1 33,9 19,8 54 76 99 946 1.012 1.023 E 7,8 61,0 234,6
08/2019 19,7 23,7 26,3 26,8 25,7 30,7 37,0 17,3 59 69 84 951 1.013 1.019 SE 9,8 66,6 50,4
07/2019 22,4 23,7 26,8 26,8 27,4 30,5 38,7 16,3 50 68 86 1.006 1.014 1.021 NNE 10,1 72,2 1,5
06/2019 14,8 19,1 24,4 22,6 20,4 26,5 34,2 19,4 38 65 88 1.008 1.015 1.021 SE 10,9 70,3 1,0
05/2019 10,8 15,7 22,4 18,9 17,3 22,5 29,2 18,4 42 67 84 1.005 1.015 1.024 ESE 11,1 68,5 10,3
04/2019 7,9 11,8 14,8 14,7 13,9 18,5 26,7 18,8 37 69 97 945 1.014 1.027 OSO 10,3 66,6 291,8
03/2019 7,9 12,1 15,4 15,3 12,9 18,5 26,8 18,9 20 62 91 1.009 1.022 1.029 SSE 9,7 62,9 40,0
02/2019 7,2 10,4 13,4 13,5 11,9 16,6 23,1 15,9 37 66 88 995 1.024 1.032 ESE 8,7 68,5 0,0
01/2019 5,9 10,5 14,1 12,8 9,9 15,5 20,7 14,8 38 59 83 1.003 1.018 1.029 SSE 9,4 70,3 5,2
12/2018 8,2 12,4 16,2 14,8 12,5 17,8 22,7 14,5 42 67 92 1.008 1.024 1.029 SSE 6,8 62,9 29,6
11/2018 11,9 14,0 16,7 15,9 15,0 18,1 22,6 10,7 43 69 97 1.000 1.014 1.022 SSO 9,3 76,6 101,8
10/2018 8,7 17,1 21,0 19,5 13,4 22,2 27,9 19,2 45 73 93 999 1.014 1.024 8,6 65,1 81,7
Tots els anys disponibles
2018 4,2 16,3 27,3 18,9 7,3 22,0 35,8 31,6 39 69 98 992 1.015 1.033 SE 10,6 81,4 556,8
2017 0,6 16,0 26,4 19,1 8,6 22,4 36,1 35,5 35 69 97 997 1.017 1.034 SE 3,4 83,0 685,3
Temperatura (°C)
Humitat relativa (%)
Velocitat del vent i ràfega màxima (km/h)
Direcció del vent (°)
Pressió (hPa)
Precipitació (mm)
Nota sobre les dades: s'avisa a l'usuari de la provisionalitat i no oficialitat d'aquestes dades
Logo AVAMET blanc
Web allotjada a Sollutia
Llicència de Creative CommonsLa web d'AVAMET i els seus continguts estan subjectes a una llicència de
Reconeixement - No Comercial - Compartir igual
Últimes estacions: Xàbia - Alt de la Granadella (Soci), Villena - Sierra de Salinas (Soci), Sueca - Centre (Inforatge), Xàbia - La Plana (Soci), Banyeres de Mariola - Molí Sol (Soci), Villena - Villa Ventín (Soci), Benissa - Convent (Soci), - - -